Benton, CA (93512)

9:42 AM PDT on May 24, 2015 (GMT -0700)
RAWS | | Change Station
CLOSE
Current Station
Personal Weather Station
Location: Benton, CA
Elevation: 7980 ft
Nearby Weather Stations

Elev 7980 ft 37.84 °N, 118.77 °W | Updated 37 minutes ago

Overcast
Overcast
48 °F
Feels Like 47 °F
N
4
Wind Variable Wind from NNE
Gusts 7.0 mph

Today
High -- | Low -- °F
--% Chance of Precip.
Yesterday
High -- | Low -- °F
Precip. -- in
5:38 AM 8:05 PM
Waxing Crescent, 40% visible
Pressure 30.14 in
Visibility 10.0 miles
Clouds Mostly Cloudy 4300 ft
Windchill 47 °F
Dew Point 35 °F
Humidity 61%
Rainfall in
Snow Depth Not available.
UV 4 out of 12
Pollen 6.20 out of 12
Air Quality Not available.
Flu Activity Sporadic
METAR KMMH 241635Z AUTO 28005KT 10SM BKN043 11/04 A3014 RMK AO1

More Conditions Fewer Conditions

Pressure 30.14 in
Visibility 10.0 miles
Clouds Mostly Cloudy 4300 ft
Windchill 47 °F
Dew Point 35 °F
Humidity 61%
Rainfall in
Snow Depth Not available.
UV 4 out of 12
Pollen 6.20 out of 12
Air Quality Not available.
Flu Activity Sporadic
METAR KMMH 241635Z AUTO 28005KT 10SM BKN043 11/04 A3014 RMK AO1

More Conditions Fewer Conditions

10-Day Weather Forecast

Almanac

Astronomy

May. 24, 2015 Rise Set
Actual Time
Civil Twilight
Nautical Twilight
Astronomical Twilight
Moon
Length of Visible Light
Length of Day
Tomorrow will be .
, % of the Moon is Illuminated

Today's Extremes

State Highs State Lows

Community

WunderPhotos

Upload Photos

1,823,777 photos uploaded!

WunderBlogs® & News

Nearby

Air Quality

  Air Quality AQ Index Pollutant
Not available.

Snow Depth

Station Depth Elevation

Earthquake Activity

City Distance Mag. Time & Date
Minimum magnitude displayed is 2.5.

Coastal Water Temperatures

Place Temperature

Stations

Nearby Weather Stations

Station Location Temp. Windchill Dew Point Humidity Wind Precip. Elev Updated Type